createdAt,value
2022-07-28T00:00:15.973Z,15.90
2022-07-28T00:02:45.747Z,15.87
2022-07-28T00:05:15.488Z,15.89
2022-07-28T00:07:45.438Z,15.84
2022-07-28T00:10:17.920Z,15.84
2022-07-28T00:12:47.964Z,15.84
2022-07-28T00:15:17.646Z,15.85
2022-07-28T00:17:47.278Z,15.86
2022-07-28T00:20:16.958Z,15.84
2022-07-28T00:22:47.442Z,15.84
2022-07-28T00:25:19.653Z,15.81
2022-07-28T00:27:49.394Z,15.79
2022-07-28T00:30:19.161Z,15.76
2022-07-28T00:32:49.275Z,15.73
2022-07-28T00:35:30.440Z,15.69
2022-07-28T00:38:02.403Z,15.69
2022-07-28T00:40:47.129Z,15.68
2022-07-28T00:43:16.963Z,15.64
2022-07-28T00:45:47.456Z,15.64
2022-07-28T00:48:17.231Z,15.62
2022-07-28T00:50:47.712Z,15.60
2022-07-28T00:53:17.512Z,15.55
2022-07-28T00:56:05.389Z,15.54
2022-07-28T00:58:37.002Z,15.50
2022-07-28T01:01:07.225Z,15.46
2022-07-28T01:03:38.119Z,15.46
2022-07-28T01:06:11.266Z,15.42
2022-07-28T01:08:51.344Z,15.41
2022-07-28T01:11:28.485Z,15.36
2022-07-28T01:14:07.519Z,15.35
2022-07-28T01:16:38.372Z,15.33
2022-07-28T01:19:13.809Z,15.31
2022-07-28T01:21:44.236Z,15.28
2022-07-28T01:24:24.134Z,15.25
2022-07-28T01:27:01.407Z,15.23
2022-07-28T01:29:51.894Z,15.20
2022-07-28T01:32:27.044Z,15.19
2022-07-28T01:35:00.576Z,15.14
2022-07-28T01:37:35.515Z,15.13
2022-07-28T01:40:08.742Z,15.10
2022-07-28T01:42:41.317Z,15.10
2022-07-28T01:45:12.670Z,15.08
2022-07-28T01:47:46.461Z,15.03
2022-07-28T01:50:18.137Z,15.02
2022-07-28T01:52:50.314Z,15.00
2022-07-28T01:55:22.905Z,14.96
2022-07-28T01:57:54.408Z,14.94
2022-07-28T02:00:24.504Z,14.93
2022-07-28T02:02:57.353Z,14.90
2022-07-28T02:05:28.276Z,14.86
2022-07-28T02:07:58.978Z,14.84
2022-07-28T02:10:29.268Z,14.79
2022-07-28T02:12:59.485Z,14.75
2022-07-28T02:15:30.254Z,14.71
2022-07-28T02:18:02.961Z,14.71
2022-07-28T02:20:32.909Z,14.66
2022-07-28T02:23:02.586Z,14.67
2022-07-28T02:25:32.914Z,14.68
2022-07-28T02:28:06.793Z,14.60
2022-07-28T02:30:40.908Z,14.59
2022-07-28T02:33:15.779Z,14.55
2022-07-28T02:35:54.102Z,14.54
2022-07-28T02:38:29.111Z,14.52
2022-07-28T02:41:02.280Z,14.48
2022-07-28T02:43:50.456Z,14.37
2022-07-28T02:46:22.949Z,14.36
2022-07-28T02:48:57.504Z,14.30
2022-07-28T02:51:27.908Z,14.26
2022-07-28T02:53:58.751Z,14.24
2022-07-28T02:56:29.383Z,14.21
2022-07-28T02:58:59.259Z,14.20
2022-07-28T03:01:29.298Z,14.15
2022-07-28T03:04:03.432Z,14.14
2022-07-28T03:06:33.099Z,14.10
2022-07-28T03:09:02.743Z,14.11
2022-07-28T03:11:33.804Z,14.10
2022-07-28T03:14:03.387Z,14.00
2022-07-28T03:16:33.049Z,14.05
2022-07-28T03:19:05.325Z,13.99
2022-07-28T03:21:35.129Z,13.96
2022-07-28T03:24:04.998Z,13.95
2022-07-28T03:26:38.998Z,13.93
2022-07-28T03:29:08.827Z,13.94
2022-07-28T03:31:40.135Z,13.92
2022-07-28T03:34:13.296Z,13.88
2022-07-28T03:36:45.537Z,13.91
2022-07-28T03:39:17.556Z,13.87
2022-07-28T03:41:48.307Z,13.83
2022-07-28T03:44:28.018Z,13.80
2022-07-28T03:46:59.438Z,13.78
2022-07-28T03:49:31.709Z,13.79
2022-07-28T03:52:01.368Z,13.69
2022-07-28T03:54:31.083Z,13.71
2022-07-28T03:57:01.242Z,13.71
2022-07-28T03:59:30.975Z,13.70
2022-07-28T04:02:00.669Z,13.68
2022-07-28T04:04:32.967Z,13.65
2022-07-28T04:07:02.848Z,13.65
2022-07-28T04:09:32.521Z,13.62
2022-07-28T04:12:02.201Z,13.62
2022-07-28T04:14:31.828Z,13.64
2022-07-28T04:17:01.517Z,13.62
2022-07-28T04:19:33.801Z,13.61
2022-07-28T04:22:03.464Z,13.62
2022-07-28T04:24:33.305Z,13.54
2022-07-28T04:27:02.862Z,13.51
2022-07-28T04:29:33.023Z,13.47
2022-07-28T04:32:02.868Z,13.54
2022-07-28T04:34:35.149Z,13.48
2022-07-28T04:37:04.707Z,13.49
2022-07-28T04:39:35.242Z,13.48
2022-07-28T04:42:04.924Z,13.50
2022-07-28T04:44:37.001Z,13.52
2022-07-28T04:47:07.231Z,13.54
2022-07-28T04:49:39.460Z,13.54
2022-07-28T04:52:09.166Z,13.56
2022-07-28T04:54:39.345Z,13.53
2022-07-28T04:57:12.747Z,13.54
2022-07-28T04:59:42.828Z,13.57
2022-07-28T05:02:12.852Z,13.61
2022-07-28T05:04:45.837Z,13.65
2022-07-28T05:07:15.489Z,13.67
2022-07-28T05:09:45.166Z,13.73
2022-07-28T05:12:15.443Z,13.71
2022-07-28T05:14:45.097Z,13.80
2022-07-28T05:17:14.775Z,13.79
2022-07-28T05:19:46.983Z,13.79
2022-07-28T05:22:16.640Z,13.83
2022-07-28T05:24:46.372Z,13.83
2022-07-28T05:27:16.075Z,13.86
2022-07-28T05:29:47.687Z,13.90
2022-07-28T05:32:18.260Z,13.94
2022-07-28T05:34:50.666Z,13.97
2022-07-28T05:37:20.249Z,13.98
2022-07-28T05:39:49.907Z,13.99
2022-07-28T05:42:19.715Z,14.08
2022-07-28T05:44:49.892Z,14.08
2022-07-28T05:47:20.008Z,14.10
2022-07-28T05:49:52.380Z,14.16
2022-07-28T05:52:22.111Z,14.20
2022-07-28T05:54:52.579Z,14.23
2022-07-28T05:57:22.378Z,14.22
2022-07-28T05:59:51.991Z,14.31
2022-07-28T06:02:21.679Z,14.27
2022-07-28T06:04:53.956Z,14.28
2022-07-28T06:07:23.686Z,14.32
2022-07-28T06:10:14.315Z,14.35
2022-07-28T06:12:44.262Z,14.38
2022-07-28T06:15:15.633Z,14.42
2022-07-28T06:17:45.360Z,14.48
2022-07-28T06:20:18.017Z,14.58
2022-07-28T06:22:48.872Z,14.64
2022-07-28T06:25:19.371Z,14.69
2022-07-28T06:27:49.495Z,14.75
2022-07-28T06:30:19.893Z,14.91
2022-07-28T06:32:49.742Z,14.96
2022-07-28T06:35:22.149Z,15.02
2022-07-28T06:37:53.243Z,15.15
2022-07-28T06:40:24.761Z,15.25
2022-07-28T06:42:54.707Z,15.29
2022-07-28T06:45:24.350Z,15.41
2022-07-28T06:47:55.942Z,15.49
2022-07-28T06:50:28.365Z,15.58
2022-07-28T06:52:58.938Z,15.65
2022-07-28T06:55:35.126Z,15.72
2022-07-28T06:58:05.702Z,15.81
2022-07-28T07:00:35.667Z,15.83
2022-07-28T07:03:09.591Z,15.96
2022-07-28T07:05:42.156Z,16.03
2022-07-28T07:08:11.820Z,16.09
2022-07-28T07:10:41.464Z,16.17
2022-07-28T07:13:11.299Z,16.25
2022-07-28T07:15:43.618Z,16.35
2022-07-28T07:18:13.277Z,16.46
2022-07-28T07:20:45.608Z,16.56
2022-07-28T07:23:15.662Z,16.70
2022-07-28T07:25:45.418Z,16.84
2022-07-28T07:28:15.115Z,16.95
2022-07-28T07:30:44.853Z,17.08
2022-07-28T07:33:14.476Z,17.20
2022-07-28T07:35:46.878Z,17.40
2022-07-28T07:38:16.617Z,17.54
2022-07-28T07:40:46.296Z,17.70
2022-07-28T07:43:16.104Z,17.81
2022-07-28T07:45:45.794Z,17.90
2022-07-28T07:48:15.518Z,18.14
2022-07-28T07:50:53.406Z,18.35
2022-07-28T07:53:24.260Z,18.48
2022-07-28T07:55:53.977Z,18.69
2022-07-28T07:58:23.833Z,18.87
2022-07-28T08:00:53.508Z,19.08
2022-07-28T08:03:23.156Z,19.19
2022-07-28T08:05:58.781Z,19.37
2022-07-28T08:08:29.849Z,19.51
2022-07-28T08:10:59.843Z,19.70
2022-07-28T08:13:33.706Z,19.80
2022-07-28T08:16:03.910Z,19.93
2022-07-28T08:18:33.609Z,20.06
2022-07-28T08:21:05.870Z,20.20
2022-07-28T08:23:35.569Z,20.40
2022-07-28T08:26:06.028Z,20.51
2022-07-28T08:28:35.702Z,20.61
2022-07-28T08:31:05.485Z,20.76
2022-07-28T08:33:35.309Z,20.90
2022-07-28T08:36:26.249Z,21.06
2022-07-28T08:38:55.880Z,21.13
2022-07-28T08:41:33.561Z,21.28
2022-07-28T08:44:06.139Z,21.28
2022-07-28T08:46:37.974Z,21.40
2022-07-28T08:49:10.281Z,21.55
2022-07-28T08:51:45.226Z,21.56
2022-07-28T08:54:15.680Z,21.62
2022-07-28T08:56:47.697Z,21.58
2022-07-28T08:59:18.305Z,21.72
2022-07-28T09:01:48.142Z,21.81
2022-07-28T09:04:18.597Z,21.90
2022-07-28T09:06:51.231Z,21.92
2022-07-28T09:09:21.658Z,22.08
2022-07-28T09:11:51.356Z,22.09
2022-07-28T09:14:21.242Z,22.20
2022-07-28T09:16:50.940Z,22.33
2022-07-28T09:19:20.597Z,22.46
2022-07-28T09:21:52.875Z,22.54
2022-07-28T09:24:39.397Z,22.67
2022-07-28T09:27:10.757Z,22.84
2022-07-28T09:29:42.509Z,22.89
2022-07-28T09:32:12.106Z,22.97
2022-07-28T09:34:43.420Z,23.03
2022-07-28T09:37:26.986Z,23.10
2022-07-28T09:39:59.033Z,23.13
2022-07-28T09:42:29.332Z,23.17
2022-07-28T09:45:24.807Z,23.27
2022-07-28T09:48:12.400Z,23.38
2022-07-28T09:50:43.633Z,23.38
2022-07-28T09:53:30.123Z,23.50
2022-07-28T09:56:01.709Z,23.61
2022-07-28T09:58:32.504Z,23.59
2022-07-28T10:01:09.683Z,23.55
2022-07-28T10:03:42.843Z,23.58
2022-07-28T10:06:17.654Z,23.63
2022-07-28T10:08:51.370Z,23.57
2022-07-28T10:11:24.660Z,23.58
2022-07-28T10:14:03.074Z,23.58
2022-07-28T10:16:34.965Z,23.67
2022-07-28T10:19:06.565Z,23.82
2022-07-28T10:21:39.086Z,23.95
2022-07-28T10:24:12.746Z,24.05
2022-07-28T10:26:46.700Z,24.02
2022-07-28T10:29:18.482Z,23.93
2022-07-28T10:31:51.996Z,23.89
2022-07-28T10:34:25.136Z,24.03
2022-07-28T10:36:57.648Z,24.00
2022-07-28T10:39:33.840Z,24.11
2022-07-28T10:42:03.896Z,24.23
2022-07-28T10:44:35.885Z,24.25
2022-07-28T10:47:05.820Z,24.36
2022-07-28T10:49:38.551Z,24.47
2022-07-28T10:52:30.348Z,24.57
2022-07-28T10:55:15.572Z,24.63
2022-07-28T10:58:02.021Z,24.73
2022-07-28T11:00:58.233Z,24.76
2022-07-28T11:03:43.969Z,24.73
2022-07-28T11:06:29.887Z,24.77
2022-07-28T11:09:00.749Z,24.82
2022-07-28T11:11:49.945Z,24.84
2022-07-28T11:14:34.029Z,24.75
2022-07-28T11:17:19.896Z,24.81
2022-07-28T11:20:25.007Z,24.93
2022-07-28T11:22:48.663Z,24.88
2022-07-28T11:25:22.174Z,24.86
2022-07-28T11:28:15.685Z,24.94
2022-07-28T11:30:58.171Z,25.03
2022-07-28T11:33:29.211Z,25.01
2022-07-28T11:36:00.279Z,25.09
2022-07-28T11:38:31.914Z,25.19
2022-07-28T11:41:01.585Z,25.27
2022-07-28T11:43:39.737Z,25.31
2022-07-28T11:46:25.074Z,25.36
2022-07-28T11:49:17.023Z,25.35
2022-07-28T11:52:17.038Z,25.30
2022-07-28T11:54:59.026Z,25.15
2022-07-28T11:57:30.163Z,25.18
2022-07-28T12:00:06.888Z,25.30
2022-07-28T12:02:38.647Z,25.32
2022-07-28T12:05:12.205Z,25.42
2022-07-28T12:07:44.953Z,25.45
2022-07-28T12:10:53.288Z,25.46
2022-07-28T12:13:28.569Z,25.34
2022-07-28T12:16:00.819Z,25.39
2022-07-28T12:18:31.051Z,25.37
2022-07-28T12:21:05.097Z,25.28
2022-07-28T12:23:39.049Z,25.07
2022-07-28T12:26:16.249Z,25.20
2022-07-28T12:28:53.052Z,25.28
2022-07-28T12:31:29.864Z,25.31
2022-07-28T12:33:59.816Z,25.38
2022-07-28T12:36:30.089Z,25.48
2022-07-28T12:39:00.326Z,25.43
2022-07-28T12:41:34.673Z,25.47
2022-07-28T12:44:06.763Z,25.51
2022-07-28T12:46:39.012Z,25.65
2022-07-28T12:49:22.416Z,25.75
2022-07-28T12:51:52.197Z,25.80
2022-07-28T12:54:37.535Z,25.84
2022-07-28T12:57:07.555Z,25.87
2022-07-28T12:59:38.686Z,25.83
2022-07-28T13:02:11.507Z,25.89
2022-07-28T13:04:43.424Z,26.00
2022-07-28T13:07:14.297Z,25.95
2022-07-28T13:10:00.006Z,26.00
2022-07-28T13:12:30.949Z,25.93
2022-07-28T13:15:01.855Z,26.01
2022-07-28T13:17:52.270Z,25.98
2022-07-28T13:20:24.130Z,25.84
2022-07-28T13:22:54.349Z,25.97
2022-07-28T13:25:24.570Z,25.92
2022-07-28T13:27:55.095Z,26.00
2022-07-28T13:30:25.789Z,25.93
2022-07-28T13:32:58.617Z,25.91
2022-07-28T13:35:29.058Z,25.89
2022-07-28T13:37:58.713Z,25.89
2022-07-28T13:40:28.369Z,25.94
2022-07-28T13:42:58.025Z,26.05
2022-07-28T13:45:30.248Z,26.14
2022-07-28T13:48:02.758Z,26.19
2022-07-28T13:50:32.617Z,26.27
2022-07-28T13:53:02.279Z,26.29
2022-07-28T13:55:32.025Z,26.28
2022-07-28T13:58:06.758Z,26.30
2022-07-28T14:00:38.767Z,26.36
2022-07-28T14:03:11.156Z,26.34
2022-07-28T14:05:41.315Z,26.37
2022-07-28T14:08:18.623Z,26.38
2022-07-28T14:10:48.484Z,26.37
2022-07-28T14:13:18.683Z,26.37
2022-07-28T14:15:49.351Z,26.39
2022-07-28T14:18:21.790Z,26.09
2022-07-28T14:20:54.566Z,26.09
2022-07-28T14:23:24.207Z,26.10
2022-07-28T14:26:07.280Z,26.17
2022-07-28T14:28:44.509Z,26.18
2022-07-28T14:31:14.167Z,26.16
2022-07-28T14:33:50.800Z,26.13
2022-07-28T14:36:23.752Z,26.12
2022-07-28T14:38:54.472Z,26.12
2022-07-28T14:41:24.999Z,26.10
2022-07-28T14:43:56.443Z,26.13
2022-07-28T14:46:29.648Z,26.22
2022-07-28T14:49:02.391Z,26.18
2022-07-28T14:51:32.209Z,26.21
2022-07-28T14:54:04.717Z,26.15
2022-07-28T14:56:34.466Z,26.15
2022-07-28T14:59:04.225Z,26.17
2022-07-28T15:01:35.971Z,26.20
2022-07-28T15:04:10.133Z,26.24
2022-07-28T15:06:39.785Z,26.06
2022-07-28T15:09:09.476Z,26.25
2022-07-28T15:11:41.186Z,26.31
2022-07-28T15:14:11.323Z,26.29
2022-07-28T15:16:41.241Z,26.32
2022-07-28T15:19:13.725Z,26.28
2022-07-28T15:21:45.775Z,26.22
2022-07-28T15:24:16.418Z,26.28
2022-07-28T15:26:46.416Z,26.26
2022-07-28T15:29:16.040Z,26.31
2022-07-28T15:31:47.140Z,26.32
2022-07-28T15:34:20.645Z,26.33
2022-07-28T15:36:50.513Z,26.28
2022-07-28T15:39:20.905Z,26.19
2022-07-28T15:41:50.580Z,26.21
2022-07-28T15:44:22.396Z,26.21
2022-07-28T15:46:55.831Z,26.14
2022-07-28T15:49:28.319Z,26.12
2022-07-28T15:51:58.095Z,26.10
2022-07-28T15:54:27.687Z,26.07
2022-07-28T15:56:57.365Z,26.05
2022-07-28T15:59:49.322Z,26.06
2022-07-28T16:02:17.425Z,26.08
2022-07-28T16:04:53.489Z,26.12
2022-07-28T16:07:28.054Z,26.14
2022-07-28T16:09:58.840Z,26.13
2022-07-28T16:12:28.762Z,26.15
2022-07-28T16:14:58.549Z,26.13
2022-07-28T16:17:28.436Z,26.13
2022-07-28T16:20:02.864Z,26.03
2022-07-28T16:22:32.778Z,26.04
2022-07-28T16:25:02.465Z,26.03
2022-07-28T16:27:32.148Z,26.03
2022-07-28T16:30:03.085Z,26.00
2022-07-28T16:32:32.810Z,25.99
2022-07-28T16:35:05.033Z,26.00
2022-07-28T16:37:35.157Z,25.94
2022-07-28T16:40:05.358Z,25.92
2022-07-28T16:42:35.568Z,25.91
2022-07-28T16:45:05.343Z,25.86
2022-07-28T16:47:35.036Z,25.84
2022-07-28T16:50:08.394Z,25.85
2022-07-28T16:52:38.197Z,25.78
2022-07-28T16:55:16.035Z,25.76
2022-07-28T16:57:47.562Z,25.72
2022-07-28T17:00:18.681Z,25.70
2022-07-28T17:02:48.356Z,25.71
2022-07-28T17:05:20.624Z,25.73
2022-07-28T17:07:51.288Z,25.73
2022-07-28T17:10:27.456Z,25.72
2022-07-28T17:12:58.610Z,25.53
2022-07-28T17:15:28.347Z,25.62
2022-07-28T17:17:58.253Z,25.61
2022-07-28T17:20:30.744Z,25.57
2022-07-28T17:23:00.570Z,25.60
2022-07-28T17:28:19.928Z,25.56
2022-07-28T17:30:49.831Z,25.51
2022-07-28T17:33:19.574Z,25.47
2022-07-28T17:35:51.761Z,25.42
2022-07-28T17:38:21.725Z,25.35
2022-07-28T17:40:52.770Z,25.34
2022-07-28T17:43:23.666Z,25.32
2022-07-28T17:45:55.036Z,25.30
2022-07-28T17:48:24.773Z,25.25
2022-07-28T17:50:58.116Z,25.24
2022-07-28T17:53:27.926Z,25.19
2022-07-28T17:56:01.015Z,25.19
2022-07-28T17:58:32.671Z,25.12
2022-07-28T18:01:09.531Z,25.05
2022-07-28T18:03:57.058Z,25.02
2022-07-28T18:06:35.883Z,25.02
2022-07-28T18:09:07.977Z,25.02
2022-07-28T18:11:57.905Z,24.94
2022-07-28T18:14:28.885Z,24.91
2022-07-28T18:16:58.623Z,24.95
2022-07-28T18:19:29.464Z,24.89
2022-07-28T18:22:01.744Z,24.88
2022-07-28T18:24:31.971Z,24.81
2022-07-28T18:27:01.965Z,24.80
2022-07-28T18:29:37.820Z,24.77
2022-07-28T18:32:10.513Z,24.73
2022-07-28T18:34:41.259Z,24.69
2022-07-28T18:37:13.583Z,24.66
2022-07-28T18:39:43.377Z,24.64
2022-07-28T18:42:13.115Z,24.61
2022-07-28T18:44:42.869Z,24.54
2022-07-28T18:47:12.541Z,24.49
2022-07-28T18:49:42.194Z,24.44
2022-07-28T18:52:14.475Z,24.32
2022-07-28T18:54:44.120Z,24.27
2022-07-28T18:57:14.932Z,24.24
2022-07-28T18:59:50.160Z,24.23
2022-07-28T19:02:22.052Z,24.25
2022-07-28T19:04:55.936Z,24.19
2022-07-28T19:07:28.227Z,24.06
2022-07-28T19:09:58.717Z,24.03
2022-07-28T19:12:31.204Z,23.99
2022-07-28T19:15:01.340Z,23.94
2022-07-28T19:17:31.256Z,23.89
2022-07-28T19:20:01.231Z,23.78
2022-07-28T19:22:33.581Z,23.77
2022-07-28T19:25:03.424Z,23.72
2022-07-28T19:27:34.208Z,23.66
2022-07-28T19:30:03.868Z,23.64
2022-07-28T19:32:33.544Z,23.60
2022-07-28T19:35:03.892Z,23.55
2022-07-28T19:37:36.976Z,23.50
2022-07-28T19:40:07.707Z,23.51
2022-07-28T19:42:37.769Z,23.42
2022-07-28T19:45:08.745Z,23.39
2022-07-28T19:47:39.156Z,23.32
2022-07-28T19:50:09.336Z,23.30
2022-07-28T19:52:41.638Z,23.25
2022-07-28T19:55:12.803Z,23.21
2022-07-28T19:57:45.635Z,23.13
2022-07-28T20:00:17.401Z,23.13
2022-07-28T20:02:47.411Z,23.05
2022-07-28T20:05:17.113Z,22.98
2022-07-28T20:07:49.420Z,22.96
2022-07-28T20:10:19.189Z,22.94
2022-07-28T20:12:48.892Z,22.92
2022-07-28T20:15:18.705Z,22.87
2022-07-28T20:17:48.336Z,22.84
2022-07-28T20:20:18.175Z,22.79
2022-07-28T20:22:50.447Z,22.76
2022-07-28T20:25:20.124Z,22.71
2022-07-28T20:27:49.761Z,22.69
2022-07-28T20:30:19.509Z,22.66
2022-07-28T20:32:49.156Z,22.65
2022-07-28T20:35:18.939Z,22.60
2022-07-28T20:37:51.282Z,22.55
2022-07-28T20:40:20.987Z,22.52
2022-07-28T20:42:53.376Z,22.50
2022-07-28T20:45:23.659Z,22.47
2022-07-28T20:47:53.351Z,22.46
2022-07-28T20:50:25.036Z,22.45
2022-07-28T20:52:57.336Z,22.42
2022-07-28T20:55:27.815Z,22.43
2022-07-28T20:57:58.289Z,22.40
2022-07-28T21:00:28.187Z,22.41
2022-07-28T21:02:57.956Z,22.39
2022-07-28T21:05:35.417Z,22.39
2022-07-28T21:08:09.268Z,22.39
2022-07-28T21:10:45.877Z,22.38
2022-07-28T21:13:15.605Z,22.36
2022-07-28T21:15:45.421Z,22.32
2022-07-28T21:18:15.376Z,22.31
2022-07-28T21:20:45.034Z,22.31
2022-07-28T21:23:18.249Z,22.27
2022-07-28T21:25:48.630Z,22.25
2022-07-28T21:28:33.316Z,22.21
2022-07-28T21:31:02.961Z,22.21
2022-07-28T21:33:32.679Z,22.11
2022-07-28T21:36:03.312Z,22.08
2022-07-28T21:38:35.579Z,22.09
2022-07-28T21:41:05.405Z,22.04
2022-07-28T21:43:35.120Z,22.00
2022-07-28T21:46:05.446Z,21.97
2022-07-28T21:48:35.415Z,21.93
2022-07-28T21:51:05.127Z,21.89
2022-07-28T21:53:50.661Z,21.88
2022-07-28T21:56:20.702Z,21.84
2022-07-28T21:58:51.057Z,21.83
2022-07-28T22:01:20.720Z,21.83
2022-07-28T22:03:50.509Z,21.78
2022-07-28T22:06:20.142Z,21.78
2022-07-28T22:08:54.002Z,21.77
2022-07-28T22:11:24.545Z,21.73
2022-07-28T22:13:54.256Z,21.64
2022-07-28T22:16:23.939Z,21.65
2022-07-28T22:18:53.672Z,21.63
2022-07-28T22:21:23.316Z,21.57
2022-07-28T22:23:55.706Z,21.60
2022-07-28T22:26:25.390Z,21.50
2022-07-28T22:28:54.992Z,21.44
2022-07-28T22:31:24.658Z,21.40
2022-07-28T22:33:54.312Z,21.33
2022-07-28T22:36:23.989Z,21.32
2022-07-28T22:38:56.621Z,21.29
2022-07-28T22:41:26.286Z,21.26
2022-07-28T22:43:56.227Z,21.25
2022-07-28T22:46:25.920Z,21.23
2022-07-28T22:48:55.733Z,21.18
2022-07-28T22:51:25.344Z,21.16
2022-07-28T22:53:57.600Z,21.11
2022-07-28T22:56:27.247Z,21.12
2022-07-28T22:59:04.793Z,21.06
2022-07-28T23:01:34.555Z,21.04
2022-07-28T23:04:05.455Z,21.02
2022-07-28T23:06:37.477Z,20.99
2022-07-28T23:09:09.889Z,20.95
2022-07-28T23:11:39.552Z,20.92
2022-07-28T23:14:09.293Z,20.87
2022-07-28T23:16:39.014Z,20.89
2022-07-28T23:19:08.755Z,20.89
2022-07-28T23:21:39.954Z,20.83
2022-07-28T23:24:12.880Z,20.80
2022-07-28T23:26:42.926Z,20.76
2022-07-28T23:29:12.652Z,20.75
2022-07-28T23:31:42.449Z,20.71
2022-07-28T23:34:12.267Z,20.73
2022-07-28T23:36:42.020Z,20.69
2022-07-28T23:39:14.319Z,20.66
2022-07-28T23:41:44.037Z,20.64
2022-07-28T23:44:13.994Z,20.57
2022-07-28T23:46:43.845Z,20.57
2022-07-28T23:49:13.599Z,20.50
2022-07-28T23:51:47.418Z,20.53
2022-07-28T23:54:20.852Z,20.46
2022-07-28T23:56:55.717Z,20.43
2022-07-28T23:59:25.424Z,20.40
